Los Angeles International Airport
KLAX : now visible

Airfield :











YOU CAN JOIN US ON...

 
LOGIN :

Register | Disclaimer

   EN    FR    IT 

 









Legend :    VFR   Marginal VFR   IFR   Intensive IFR   Very Intensive IFR
Visi :
Ceiling :
>= 8 km
>= 3000ft
5 to 8 km
1000 to 3000 ft
1500m to 5 km
500 to 1000 ft
800 to 1500m
200 to 500 ft
< 800m
< 200 ft
Symbols :   Thunderstorms  Fog  Heavy snow  Heavy precipitations  Wind > 20 kt






- Airport Elevation : 125 ft
- IATA code : LAX


KLAX - Los Angeles International

CURRENT METAR :
  • 291453Z 34012G20KT 300V360 10SM FEW160 17/00 A2999 RMK AO2 SLP152 T01720000 53005

EXPIRED METARs :
  • 291353Z 36013G25KT 10SM FEW160 18/M01 A2996 RMK AO2 SLP145 T01781006
  • 291253Z 33017G34KT 10SM FEW200 18/M02 A2997 RMK AO2 PK WND 31034/1245 SLP148 T01831017

TAF KLAX
Valid from the 29 at 15:00 until the 30 at 18:00 UTC


291439Z 2915/3018 36014G25KT P6SM FEW160
FM291600 35012KT P6SM SKC
FM292000 27012KT P6SM SKC
FM300300 30006KT P6SM SKC
FM300500 35006KT P6SM SKC
FM300900 VRB03KT P6SM SKC



MET'MAP, your aeronautical weather chart ! - Copyright ORBIFLY December 2007 - Disclaimer

ORBIFLY MET'MAP TEAM :

Programming & Development : Alexandra Zaïnal
Concept & original design : Baudouin d'Aumeries
Assistance for programming : Marc-Olivier Méhu
Technical & hardware support : Manuel Goepfert

Contact : metmap@orbifly.com




SOURCES & CREDITS :

   NOAA       Earth
Advisory